• Join FlightAware (Why Join?)
  • Login
  • US Flag 
Rudolph Flight #1: Arrived! 
12:40AM EST


 

Airport Tracker/Info


-or-


 

Live Flight TrackerFlight Track Log ✈ UAL139 ✈ 15-Oct-2013 ✈ KDEN - RJAA / NRT

Flight Track Log - Related Links

Times and Time Zones

All times are in EDT time to prevent confusion due to time zone crossing. See the UAL139 flight status page for this flight to view local times or setup timezone preferences in your user account.

Time Position Orientation Groundspeed Altitude Reporting Facility
EDT Latitude Longitude Course Direction KTS MPH feet Rate Location/Type
02:43PM 39.8650 -104.6960 322° Northwest 136 157 5,000  Level FlightAware
02:44PM 39.8810 -104.6960 360° North 197 227 5,000 960 Level FlightAware
02:44PM 39.8941 -104.6961 360° North 216 249 5,700 1,920 Climbing FlightAware ADS-B (KEIK)
02:44PM 39.9141 -104.6959 360° North 218 251 6,100 1,920 Climbing FlightAware ADS-B (KEIK)
02:44PM 39.9315 -104.6999 350° North 231 266 6,700 1,560 Climbing FlightAware ADS-B (KEIK)
02:45PM 39.9700 -104.7110 348° North 264 304 7,400 1,620 Climbing FlightAware
02:45PM 39.9940 -104.7180 347° North 275 316 8,100 2,520 Climbing FlightAware
02:46PM 40.0160 -104.7240 348° North 277 319 9,000 3,060 Climbing FlightAware
02:46PM 40.0400 -104.7330 344° North 277 319 10,000 2,160 Climbing FlightAware
02:46PM 40.0558 -104.7398 342° North 295 339 10,200 1,140 Climbing FlightAware ADS-B (KEIK)
02:47PM 40.1094 -104.7644 341° North 332 382 11,000 1,620 Climbing FlightAware ADS-B (KEIK)
02:47PM 40.1599 -104.7878 340° North 346 398 12,200 2,280 Climbing FlightAware ADS-B (KEIK)
02:48PM 40.2202 -104.8154 341° North 354 407 13,800 2,340 Climbing FlightAware ADS-B (KEIK)
02:49PM 40.2692 -104.8380 341° North 361 415 15,000 2,100 Climbing FlightAware ADS-B (KEIK)
02:49PM 40.3180 -104.8604 341° North 370 426 16,000 1,860 Climbing FlightAware ADS-B (KEIK)
02:50PM 40.3777 -104.8883 340° North 379 436 17,300 1,980 Climbing FlightAware ADS-B (KEIK)
02:50PM 40.4378 -104.9159 341° North 385 443 18,400 1,920 Climbing FlightAware ADS-B (KEIK)
02:51PM 40.4824 -104.9364 341° North 390 449 19,300 1,860 Climbing FlightAware ADS-B (KEIK)
02:51PM 40.5358 -104.9611 341° North 395 455 20,300 1,800 Climbing FlightAware ADS-B (KEIK)
02:52PM 40.5960 -104.9890 341° North 402 463 21,200 1,680 Climbing FlightAware
02:52PM 40.5900 -104.9864 162° South 403 464 21,400 1,680 Climbing FlightAware ADS-B (KEIK)
02:52PM 40.6617 -105.0198 341° North 409 471 22,300 1,560 Climbing FlightAware ADS-B (KEIK)
02:53PM 40.7043 -105.0397 341° North 414 476 23,000 1,440 Climbing FlightAware ADS-B (KEIK)
02:53PM 40.7444 -105.0596 339° North 414 476 23,800 1,440 Climbing FlightAware ADS-B (KEIK)
02:54PM 40.7980 -105.1051 327° Northwest 414 476 24,200 1,620 Climbing FlightAware ADS-B (KEIK)
02:54PM 40.8580 -105.1730 319° Northwest 414 476 25,400 1,680 Climbing FlightAware
02:55PM 40.8735 -105.1906 319° Northwest 416 479 25,700 1,200 Climbing FlightAware ADS-B (KEIK)
02:56PM 40.9608 -105.2894 319° Northwest 428 493 26,900 1,140 Climbing FlightAware ADS-B (KEIK)
02:56PM 41.0140 -105.3500 319° Northwest 433 498 27,500 1,080 Climbing FlightAware
02:57PM 41.0613 -105.4039 319° Northwest 441 507 28,200 1,080 Climbing FlightAware ADS-B (KEIK)
02:57PM 41.1318 -105.4843 319° Northwest 445 512 28,900 1,020 Climbing FlightAware ADS-B (KEIK)
02:58PM 41.1849 -105.5445 320° Northwest 448 516 29,500 1,020 Climbing FlightAware ADS-B (KEIK)
02:59PM 41.2450 -105.6110 320° Northwest 453 521 30,200 960 Climbing FlightAware
02:59PM 41.3020 -105.6720 321° Northwest 458 527 30,700 900 Climbing FlightAware
03:00PM 41.3650 -105.7420 320° Northwest 461 531 31,300 840 Climbing FlightAware
03:00PM 41.4170 -105.8010 320° Northwest 466 536 31,700 720 Climbing FlightAware
03:01PM 41.4690 -105.8590 320° Northwest 470 541 32,100 660 Climbing FlightAware
03:02PM 41.5320 -105.9340 318° Northwest 472 543 32,500 600 Climbing FlightAware
03:02PM 41.5780 -106.0190 306° West 473 544 32,900 600 Climbing FlightAware
03:03PM 41.6110 -106.0860 303° West 477 549 33,200 720 Climbing FlightAware
03:03PM 41.6620 -106.1900 303° West 477 549 33,800 960 Climbing FlightAware
03:04PM 41.6990 -106.2660 303° West 476 548 34,400 1,020 Climbing FlightAware
03:05PM 41.7520 -106.3770 303° West 474 545 35,100 720 Climbing FlightAware
03:05PM 41.7930 -106.4600 304° West 475 547 35,400 300 Climbing FlightAware
03:06PM 41.8300 -106.5410 302° West 474 545 35,500 60 Climbing FlightAware
03:06PM 41.8670 -106.6190 303° West 474 545 35,500  Level FlightAware
03:07PM 41.9020 -106.6960 301° West 474 545 35,500  Level FlightAware
03:08PM 41.9380 -106.7720 303° West 474 545 35,500  Level FlightAware
03:08PM 41.9740 -106.8510 302° West 474 545 35,500  Level FlightAware
03:09PM 42.0110 -106.9290 303° West 474 545 35,500  Level FlightAware
03:09PM 42.0470 -107.0060 302° West 474 545 35,500  Level FlightAware
03:10PM 42.0820 -107.0830 302° West 474 545 35,500  Level FlightAware
03:11PM 42.1340 -107.1960 302° West 474 545 35,500  Level FlightAware
03:12PM 42.1700 -107.2720 303° West 474 545 35,500  Level FlightAware
03:12PM 42.2160 -107.3730 302° West 474 545 35,500  Level FlightAware
03:13PM 42.2520 -107.4500 302° West 474 545 35,500  Level FlightAware
03:14PM 42.2880 -107.5290 302° West 474 545 35,500  Level FlightAware
03:14PM 42.3220 -107.6010 303° West 474 545 35,500  Level FlightAware
03:15PM 42.3580 -107.6780 302° West 474 545 35,500  Level FlightAware
03:15PM 42.3940 -107.7570 302° West 474 545 35,500 240 Level FlightAware
03:16PM 42.5853 -108.1536 302° West 487 560 36,000 180 Climbing Salt Lake Center
03:17PM 42.6536 -108.3056 301° West 490 564 36,000  Level Salt Lake Center
03:18PM 42.7336 -108.4839 301° West 494 568 36,000  Level Salt Lake Center
03:19PM 42.8028 -108.6364 302° West 497 572 36,000  Level Salt Lake Center
03:21PM 42.8708 -108.7900 301° West 497 572 36,000  Level Salt Lake Center
03:22PM 42.9503 -108.9694 301° West 497 572 36,000  Level Salt Lake Center
03:23PM 43.0214 -109.1306 301° West 491 565 36,000  Level Salt Lake Center
03:24PM 43.0914 -109.2897 301° West 490 564 36,000  Level Salt Lake Center
03:25PM 43.1619 -109.4508 301° West 492 566 36,000  Level Salt Lake Center
03:26PM 43.2322 -109.6117 301° West 493 567 36,000  Level Salt Lake Center
03:27PM 43.3031 -109.7733 301° West 494 568 36,000  Level Salt Lake Center
03:28PM 43.3875 -109.9661 301° West 494 568 36,000  Level Salt Lake Center
03:29PM 43.4547 -110.1203 301° West 494 568 36,000  Level Salt Lake Center
03:30PM 43.5328 -110.2997 301° West 497 572 36,000  Level Salt Lake Center
03:31PM 43.5992 -110.4561 300° West 496 571 36,000  Level Salt Lake Center
03:32PM 43.6775 -110.6372 301° West 493 567 36,000  Level Salt Lake Center
03:33PM 43.7447 -110.7967 300° West 500 575 36,000  Level Salt Lake Center
03:34PM 43.8111 -110.9558 300° West 499 574 36,000  Level Salt Lake Center
03:35PM 43.8886 -111.1425 300° West 500 575 36,000  Level Salt Lake Center
03:36PM 43.9550 -111.3028 300° West 499 574 36,000  Level Salt Lake Center
03:37PM 44.0322 -111.4897 300° West 497 572 36,000  Level Salt Lake Center
03:38PM 44.0989 -111.6508 300° West 500 575 36,000  Level Salt Lake Center
03:39PM 44.1756 -111.8403 299° West 500 575 36,000  Level Salt Lake Center
03:40PM 44.2417 -112.0025 300° West 500 575 36,000  Level Salt Lake Center
03:41PM 44.3053 -112.1622 299° West 490 564 36,000  Level Salt Lake Center
03:42PM 44.3806 -112.3492 299° West 493 567 36,000  Level Salt Lake Center
03:43PM 44.4444 -112.5094 299° West 492 566 36,000  Level Salt Lake Center
03:48PM 44.7980 -113.4140 299° West 491 565 36,000  Level FlightAware
03:49PM 44.8410 -113.5250 299° West 491 565 36,000  Level FlightAware
03:50PM 44.8770 -113.6200 298° West 491 565 36,000  Level FlightAware
03:50PM 44.9150 -113.7200 298° West 491 565 36,000  Level FlightAware
03:51PM 44.9470 -113.8070 297° West 491 565 36,000  Level FlightAware
03:52PM 44.9810 -113.8960 298° West 491 565 36,000  Level FlightAware
03:52PM 45.0150 -113.9850 298° West 491 565 36,000  Level FlightAware
03:53PM 45.0490 -114.0770 298° West 491 565 36,000  Level FlightAware
03:53PM 45.0820 -114.1660 298° West 491 565 36,000  Level FlightAware
03:54PM 45.1130 -114.2480 298° West 491 565 36,000  Level FlightAware
03:55PM 45.1470 -114.3370 298° West 491 565 36,000  Level FlightAware
03:55PM 45.1790 -114.4250 297° West 491 565 36,000  Level FlightAware
03:56PM 45.2110 -114.5090 298° West 491 565 36,000  Level FlightAware
03:57PM 45.2530 -114.6210 298° West 491 565 36,000  Level FlightAware
03:57PM 45.2870 -114.7130 298° West 491 565 36,000  Level FlightAware
03:58PM 45.3180 -114.7950 298° West 491 565 36,000  Level FlightAware
03:58PM 45.3510 -114.8820 298° West 491 565 36,000  Level FlightAware
03:59PM 45.3850 -114.9750 298° West 491 565 36,000  Level FlightAware
04:00PM 45.4920 -115.2820 297° West 469 540 36,000  Level FlightAware
04:00PM 45.5280 -115.3820 297° West 467 537 36,000  Level FlightAware
04:01PM 45.5580 -115.4640 298° West 467 537 36,000  Level FlightAware
04:01PM 45.5990 -115.5800 297° West 467 537 36,000  Level FlightAware
04:02PM 45.6320 -115.6750 296° West 467 537 36,000  Level FlightAware
04:03PM 45.6670 -115.7730 297° West 469 540 36,000  Level FlightAware
04:03PM 45.6980 -115.8610 297° West 470 541 36,000  Level FlightAware
04:04PM 45.7350 -115.9670 297° West 469 540 36,000  Level FlightAware
04:04PM 45.7660 -116.0560 297° West 469 540 36,000  Level FlightAware
04:05PM 45.8020 -116.1600 296° West 470 541 36,000  Level FlightAware
04:05PM 45.8370 -116.2610 296° West 469 540 36,000  Level FlightAware
04:06PM 45.8680 -116.3490 297° West 468 539 36,000  Level FlightAware
04:07PM 45.9000 -116.4440 296° West 469 540 36,000  Level FlightAware
04:07PM 45.9350 -116.5450 297° West 467 537 36,000  Level FlightAware
04:08PM 45.9660 -116.6370 296° West 465 535 36,000  Level FlightAware
04:08PM 46.0070 -116.7570 296° West 465 535 36,000  Level FlightAware
04:09PM 46.0360 -116.8400 297° West 464 534 36,000  Level FlightAware
04:10PM 46.0730 -116.9510 296° West 465 535 36,000  Level FlightAware
04:10PM 46.1130 -117.0700 296° West 467 537 36,000  Level FlightAware
04:11PM 46.1460 -117.1720 295° West 467 537 36,000  Level FlightAware
04:12PM 46.1750 -117.2610 295° West 467 537 36,000  Level FlightAware
04:12PM 46.2030 -117.3470 295° West 467 537 36,000  Level FlightAware
04:13PM 46.2470 -117.4730 297° West 468 539 36,000  Level FlightAware
04:13PM 46.2810 -117.5760 296° West 470 541 36,000  Level FlightAware
04:14PM 46.3140 -117.6770 295° West 468 539 36,000  Level FlightAware
04:14PM 46.3440 -117.7680 296° West 466 536 36,000  Level FlightAware
04:15PM 46.3770 -117.8690 295° West 466 536 36,000  Level FlightAware
04:16PM 46.4090 -117.9680 295° West 465 535 36,000  Level FlightAware
04:16PM 46.4450 -118.0800 295° West 463 533 36,000  Level FlightAware
04:17PM 46.4770 -118.1780 295° West 462 532 36,000  Level FlightAware
04:17PM 46.5070 -118.2710 295° West 461 531 36,000  Level FlightAware
04:18PM 46.5390 -118.3720 295° West 462 532 36,000  Level FlightAware
04:19PM 46.5710 -118.4720 295° West 463 533 36,000  Level FlightAware
04:19PM 46.6030 -118.5740 295° West 464 534 36,000  Level FlightAware
04:20PM 46.6320 -118.6650 295° West 464 534 36,000  Level FlightAware
04:20PM 46.6630 -118.7640 295° West 464 534 36,000  Level FlightAware
04:21PM 46.6960 -118.8700 294° West 464 534 36,000  Level FlightAware
04:21PM 46.7230 -118.9560 295° West 464 534 36,000  Level FlightAware
04:22PM 46.7490 -119.0390 295° West 465 535 36,000  Level FlightAware ADS-B
04:23PM 46.7880 -119.1650 294° West 465 535 36,000  Level FlightAware
04:23PM 46.8112 -119.2400 294° West 465 535 36,000  Level FlightAware ADS-B
04:24PM 46.8383 -119.3280 294° West 466 536 36,000  Level FlightAware ADS-B
04:24PM 46.8648 -119.4140 294° West 466 536 36,000  Level FlightAware ADS-B
04:25PM 46.8914 -119.5010 294° West 467 537 36,000  Level FlightAware ADS-B
04:25PM 46.9182 -119.5890 294° West 467 537 36,000  Level FlightAware ADS-B
04:26PM 46.9445 -119.6760 294° West 467 537 36,000  Level FlightAware ADS-B
04:26PM 46.9709 -119.7640 294° West 466 536 36,000  Level FlightAware ADS-B
04:27PM 47.0000 -119.8600 294° West 464 534 36,000  Level FlightAware ADS-B
04:27PM 47.0267 -119.9490 294° West 463 533 36,000  Level FlightAware ADS-B
04:28PM 47.0530 -120.0370 294° West 465 535 36,000  Level FlightAware ADS-B
04:28PM 47.0788 -120.1230 294° West 464 534 36,000  Level FlightAware ADS-B
04:29PM 47.1045 -120.2100 293° West 462 532 36,000  Level FlightAware ADS-B
04:29PM 47.1300 -120.2960 294° West 462 532 36,000  Level FlightAware ADS-B
04:30PM 47.1553 -120.3820 293° West 462 532 36,000  Level FlightAware ADS-B
04:30PM 47.1806 -120.4680 293° West 461 531 36,000  Level FlightAware ADS-B
04:31PM 47.2065 -120.5570 293° West 461 531 36,000  Level FlightAware ADS-B
04:31PM 47.2328 -120.6470 293° West 460 529 36,000  Level FlightAware ADS-B
04:32PM 47.2578 -120.7330 293° West 460 529 36,000  Level FlightAware ADS-B
04:32PM 47.2828 -120.8190 293° West 460 529 36,000  Level FlightAware ADS-B
04:33PM 47.3079 -120.9060 293° West 460 529 36,000  Level FlightAware ADS-B
04:33PM 47.3329 -120.9930 293° West 460 529 36,000  Level FlightAware ADS-B
04:34PM 47.3579 -121.0800 293° West 458 527 36,000  Level FlightAware ADS-B
04:34PM 47.3839 -121.1710 293° West 458 527 36,000  Level FlightAware ADS-B
04:35PM 47.4136 -121.2750 293° West 458 527 36,000  Level FlightAware ADS-B
04:35PM 47.4388 -121.3640 293° West 456 525 36,000  Level FlightAware ADS-B
04:36PM 47.4638 -121.4530 293° West 458 527 36,000  Level FlightAware ADS-B
04:36PM 47.4771 -121.5003 293° West 459 528 36,000  Level FlightAware ADS-B (FAKM / KIM)
04:37PM 47.4888 -121.5420 293° West 460 529 36,000  Level FlightAware ADS-B
04:37PM 47.5020 -121.5889 293° West 461 531 36,000  Level FlightAware ADS-B (FAKM / KIM)
04:37PM 47.5137 -121.6310 292° West 462 532 36,000  Level FlightAware ADS-B
04:37PM 47.5327 -121.6989 292° West 460 529 36,000  Level FlightAware ADS-B (FAKM / KIM)
04:38PM 47.5380 -121.7180 292° West 460 529 36,000  Level FlightAware ADS-B
04:38PM 47.5621 -121.8050 292° West 457 526 36,000  Level FlightAware ADS-B
04:38PM 47.5695 -121.8313 293° West 454 522 36,000  Level FlightAware ADS-B (CYWH)
04:39PM 47.5863 -121.8920 292° West 457 526 36,000  Level FlightAware ADS-B
04:39PM 47.6103 -121.9790 292° West 458 527 36,000  Level FlightAware ADS-B
04:39PM 47.6131 -121.9892 292° West 455 524 36,000  Level FlightAware ADS-B (CYWH)
04:40PM 47.6343 -122.0660 292° West 459 528 36,000  Level FlightAware ADS-B
04:40PM 47.6587 -122.1550 292° West 458 527 36,000  Level FlightAware ADS-B
04:40PM 47.6703 -122.1977 292° West 459 528 36,000  Level FlightAware ADS-B (FAKM / KIM)
04:41PM 47.6835 -122.2460 292° West 459 528 36,000  Level FlightAware ADS-B
04:41PM 47.6846 -122.2502 291° West 457 526 36,000  Level FlightAware ADS-B (CYWH)
04:41PM 47.7019 -122.3137 292° West 457 526 36,000  Level FlightAware ADS-B (CYWH)
04:41PM 47.7073 -122.3340 292° West 459 528 36,000  Level FlightAware ADS-B
04:41PM 47.7204 -122.3819 292° West 457 526 36,000  Level FlightAware ADS-B (CYWH)
04:42PM 47.7313 -122.4220 292° West 459 528 36,000  Level FlightAware ADS-B
04:42PM 47.7468 -122.4794 292° West 455 524 36,000  Level FlightAware ADS-B (CYWH)
04:42PM 47.7551 -122.5100 292° West 458 527 36,000  Level FlightAware ADS-B
04:42PM 47.7697 -122.5644 292° West 458 527 36,000  Level FlightAware ADS-B (FAKM / KIM)
04:42PM 47.7754 -122.5860 292° West 457 526 36,000  Level FlightAware ADS-B
04:43PM 47.7814 -122.6130 288° West 458 527 36,000  Level FlightAware ADS-B
04:43PM 47.7852 -122.6350 284° West 458 527 36,000  Level FlightAware ADS-B
04:43PM 47.7880 -122.6610 279° West 459 528 36,000  Level FlightAware ADS-B
04:43PM 47.7883 -122.6659 275° West 458 527 36,000  Level FlightAware ADS-B (CYWH)
04:43PM 47.7902 -122.7301 273° West 461 531 36,000  Level FlightAware ADS-B (CYWH)
04:44PM 47.7906 -122.7860 271° West 461 531 36,000  Level FlightAware ADS-B
04:44PM 47.7909 -122.8231 271° West 462 532 36,000  Level FlightAware ADS-B (CYWH)
04:44PM 47.7914 -122.8830 271° West 462 532 36,000  Level FlightAware ADS-B
04:44PM 47.7918 -122.9218 271° West 461 531 36,000  Level FlightAware ADS-B (CYWH)
04:44PM 47.7914 -122.8877 91° East 461 531 36,000  Level FlightAware ADS-B (FAKM / KIM)
04:45PM 47.7924 -122.9770 271° West 461 531 36,000  Level FlightAware ADS-B
04:45PM 47.7934 -123.0792 271° West 462 532 36,000  Level FlightAware ADS-B (CYWH)
04:45PM 47.7935 -123.0930 271° West 462 532 36,000  Level FlightAware ADS-B
04:46PM 47.7943 -123.1880 271° West 462 532 36,000  Level FlightAware ADS-B
04:46PM 47.7943 -123.1972 270° West 462 532 36,000  Level FlightAware ADS-B (CYWH)
04:46PM 47.7949 -123.2830 271° West 463 533 36,000  Level FlightAware ADS-B
04:46PM 47.7950 -123.2949 271° West 464 534 36,000  Level FlightAware ADS-B (CYWH)
04:47PM 47.7956 -123.3800 271° West 464 534 36,000  Level FlightAware ADS-B
04:47PM 47.7957 -123.3961 271° West 464 534 36,000  Level FlightAware ADS-B (CYWH)
04:47PM 47.7959 -123.4760 270° West 463 533 36,000  Level FlightAware ADS-B
04:47PM 47.7959 -123.4933 270° West 463 533 36,000  Level FlightAware ADS-B (CYWH)
04:48PM 47.7962 -123.5800 270° West 464 534 36,000  Level FlightAware ADS-B
04:48PM 47.7983 -123.6180 275° West 463 533 36,000  Level FlightAware ADS-B
04:48PM 47.7982 -123.6158 94° East 462 532 36,000  Level FlightAware ADS-B (FAKM / KIM)
04:48PM 47.8114 -123.7110 282° West 461 531 36,000  Level FlightAware ADS-B
04:48PM 47.8120 -123.7150 283° West 462 532 36,000  Level FlightAware ADS-B (FAKM / KIM)
04:49PM 47.8165 -123.7459 282° West 462 532 36,000  Level FlightAware ADS-B (FAKM / KIM)
04:49PM 47.8254 -123.8000 284° West 461 531 36,000  Level FlightAware ADS-B
04:49PM 47.8354 -123.8571 285° West 462 532 36,000  Level FlightAware ADS-B (CYWH)
04:49PM 47.8429 -123.8990 285° West 462 532 36,000  Level FlightAware ADS-B
04:50PM 47.8523 -123.9521 285° West 462 532 36,000  Level FlightAware ADS-B (CYWH)
04:50PM 47.8596 -123.9930 285° West 462 532 36,000  Level FlightAware ADS-B
04:50PM 47.8766 -124.0880 285° West 462 532 36,000  Level FlightAware ADS-B
04:51PM 47.8788 -124.0998 285° West 461 531 36,000  Level FlightAware ADS-B (FAKM / KIM)
04:51PM 47.8932 -124.1800 285° West 459 528 36,000  Level FlightAware ADS-B
04:51PM 47.8988 -124.2107 285° West 457 526 36,000  Level FlightAware ADS-B (CYWH)
04:51PM 47.9098 -124.2720 285° West 458 527 36,000  Level FlightAware ADS-B
04:52PM 47.9173 -124.3136 285° West 458 527 36,000  Level FlightAware ADS-B (CYWH)
04:52PM 47.9348 -124.4120 285° West 458 527 36,000  Level FlightAware ADS-B
04:52PM 47.9378 -124.4286 285° West 458 527 36,000  Level FlightAware ADS-B (CYWH)
04:53PM 47.9513 -124.5050 285° West 458 527 36,000  Level FlightAware ADS-B
04:53PM 47.9566 -124.5353 285° West 458 527 36,000  Level FlightAware ADS-B (CYWH)
04:53PM 47.9675 -124.5970 285° West 456 525 36,000  Level FlightAware ADS-B
04:54PM 47.9774 -124.6544 285° West 455 524 36,000  Level FlightAware ADS-B (CYWH)
04:54PM 47.9834 -124.6890 284° West 454 522 36,000  Level FlightAware ADS-B
04:54PM 47.9973 -124.7683 285° West 452 520 36,000  Level FlightAware ADS-B (CYWH)
04:54PM 47.9996 -124.7820 284° West 453 521 36,000  Level FlightAware ADS-B
04:55PM 48.0149 -124.8740 284° West 451 519 36,000  Level FlightAware ADS-B
04:55PM 48.0227 -124.9216 284° West 449 517 36,000  Level FlightAware ADS-B (CYWH)
04:55PM 48.0311 -124.9730 284° West 450 518 36,000  Level FlightAware ADS-B
04:56PM 48.0386 -125.0184 284° West 448 516 36,000  Level FlightAware ADS-B (CYWH)
04:56PM 48.0460 -125.0630 284° West 449 517 36,000  Level FlightAware ADS-B
04:56PM 48.0527 -125.1043 284° West 449 517 36,000  Level FlightAware ADS-B (FAKM / KIM)
04:56PM 48.0608 -125.1540 284° West 449 517 36,000  Level FlightAware ADS-B
04:57PM 48.0679 -125.1975 284° West 449 517 36,000  Level FlightAware ADS-B (FAKM / KIM)
04:57PM 48.0759 -125.2470 284° West 448 516 36,000  Level FlightAware ADS-B
04:57PM 48.0808 -125.2767 284° West 448 516 36,000  Level FlightAware ADS-B (FAKM / KIM)
04:58PM 48.0959 -125.3700 284° West 448 516 36,000  Level FlightAware ADS-B
04:58PM 48.1144 -125.4850 284° West 447 514 36,000  Level FlightAware ADS-B
04:59PM 48.1327 -125.5997 283° West 443 510 36,000  Level FlightAware ADS-B (CYWH)
05:00PM 48.1540 -125.7370 283° West 445 512 36,000  Level FlightAware
05:00PM 48.1720 -125.8490 284° West 444 511 36,000  Level FlightAware
05:01PM 48.1890 -125.9580 283° West 444 511 36,000  Level FlightAware
05:01PM 48.2060 -126.0660 283° West 442 509 36,000  Level FlightAware
05:02PM 48.2240 -126.1850 283° West 441 507 36,000  Level FlightAware
05:03PM 48.2420 -126.2990 283° West 441 507 36,000  Level FlightAware
05:03PM 48.2580 -126.4070 283° West 441 507 36,000  Level FlightAware
05:04PM 48.2790 -126.5480 283° West 439 505 36,000  Level FlightAware
05:05PM 48.2950 -126.6570 282° West 439 505 36,000  Level FlightAware
05:05PM 48.3070 -126.7330 283° West 438 504 36,000  Level FlightAware
05:06PM 48.3320 -126.9050 282° West 438 504 36,000  Level FlightAware
05:07PM 48.3460 -127.0010 282° West 438 504 36,000  Level FlightAware
05:07PM 48.3640 -127.1270 282° West 439 505 36,000  Level FlightAware
05:08PM 48.3810 -127.2400 283° West 436 502 36,000  Level FlightAware
05:09PM 48.4000 -127.3690 283° West 437 503 36,000  Level FlightAware
05:09PM 48.4130 -127.4690 281° West 436 502 36,000  Level FlightAware
05:10PM 48.4300 -127.5790 283° West 436 502 36,000  Level FlightAware
05:11PM 48.4460 -127.7070 281° West 435 501 36,000  Level FlightAware
05:11PM 48.4620 -127.8200 282° West 435 501 36,000  Level FlightAware
05:12PM 48.4770 -127.9320 281° West 434 499 36,000  Level FlightAware
05:13PM 48.4890 -128.0260 281° West 434 499 36,000  Level FlightAware
05:13PM 48.5010 -128.1170 281° West 434 499 36,000  Level FlightAware
05:14PM 48.5120 -128.2080 280° West 434 499 36,000  Level FlightAware
05:14PM 48.5240 -128.2990 281° West 434 499 36,000  Level FlightAware
05:15PM 48.5360 -128.3930 281° West 434 499 36,000  Level FlightAware
05:16PM 48.5480 -128.4840 281° West 434 499 36,000  Level FlightAware
05:16PM 48.5600 -128.5770 281° West 434 499 36,000  Level FlightAware
05:17PM 48.5720 -128.6680 281° West 434 499 36,000  Level FlightAware
05:17PM 48.5830 -128.7600 280° West 434 499 36,000  Level FlightAware
05:18PM 48.5950 -128.8510 281° West 434 499 36,000  Level FlightAware
05:19PM 48.6070 -128.9420 281° West 434 499 36,000  Level FlightAware
05:19PM 48.6180 -129.0330 280° West 434 499 36,000  Level FlightAware
05:20PM 48.6310 -129.1270 282° West 434 499 36,000  Level FlightAware
05:21PM 48.6430 -129.2210 281° West 434 499 36,000  Level FlightAware
05:21PM 48.6550 -129.3150 281° West 434 499 36,000  Level FlightAware
05:22PM 48.6833 -129.7500 281° West 440 506 36,000  Level Vancouver Center
05:23PM 48.7167 -129.9000 289° West 440 506 36,000  Level Vancouver Center
05:24PM 48.7333 -130.1000 277° West 450 518 36,000  Level Vancouver Center
05:25PM 48.7500 -130.2833 278° West 440 506 36,000  Level Vancouver Center
05:26PM 48.7833 -130.4667 285° West 450 518 36,000 240 Level Vancouver Center
05:27PM 48.8000 -130.6500 278° West 450 518 36,500 480 Climbing Vancouver Center
05:28PM 48.8000 -130.8333 270° West 460 529 37,000 360 Climbing Vancouver Center
05:29PM 48.8500 -131.0333 291° West 450 518 37,300 360 Climbing Vancouver Center
05:30PM 48.8667 -131.2167 278° West 450 518 37,800 300 Climbing Vancouver Center
05:31PM 48.8667 -131.4167 270° West 460 529 38,000 60 Climbing Vancouver Center
05:32PM 48.8833 -131.6000 278° West 470 541 38,000  Level Vancouver Center
05:33PM 48.9167 -131.8000 284° West 460 529 38,000  Level Vancouver Center
05:34PM 48.9500 -132.0000 284° West 460 529 38,000  Level Vancouver Center
05:36PM 48.9868 -132.3172 280° West  Level FlightAware Approximate
05:37PM 49.0167 -132.5167 284° West 477 549 38,000  Level Oakland Oceanic (ODAPS)
05:39PM 49.0833 -132.9333 284° West 473 544 38,000  Level Oakland Oceanic (ODAPS)
05:43PM 49.2038 -133.6773 283° West 477 549 38,000  Level FlightAware Transoceanic
05:44PM 49.2338 -133.8716 283° West 477 549 38,000  Level FlightAware Transoceanic
05:45PM 49.2658 -134.0919 283° West 473 544 38,000  Level FlightAware Transoceanic
05:46PM 49.2950 -134.2858 283° West 473 544 38,000  Level FlightAware Transoceanic
05:47PM 49.3240 -134.4799 283° West 473 544 38,000  Level FlightAware Transoceanic
05:48PM 49.3526 -134.6743 283° West 473 544 38,000  Level FlightAware Transoceanic
05:49PM 49.3809 -134.8689 283° West 473 544 38,000  Level FlightAware Transoceanic
05:50PM 49.4089 -135.0637 282° West 473 544 38,000  Level FlightAware Transoceanic
05:51PM 49.4365 -135.2587 282° West 473 544 38,000  Level FlightAware Transoceanic
05:52PM 49.4638 -135.4540 282° West 473 544 38,000  Level FlightAware Transoceanic
05:53PM 49.4908 -135.6495 282° West 473 544 38,000  Level FlightAware Transoceanic
05:53PM 49.4833 -135.6500 282° West 478 550 38,000  Level Oakland Oceanic (ODAPS)
05:54PM 49.5175 -135.8452 282° West 473 544 38,000  Level FlightAware Transoceanic
05:55PM 49.5438 -136.0411 282° West 473 544 38,000  Level FlightAware Transoceanic
05:56PM 49.5698 -136.2372 281° West 473 544 38,000  Level FlightAware Transoceanic
05:57PM 49.5955 -136.4335 281° West 473 544 38,000  Level FlightAware Transoceanic
05:58PM 49.6208 -136.6300 281° West 473 544 38,000  Level FlightAware Transoceanic
05:59PM 49.6404 -136.8270 281° West 478 550 38,000  Level FlightAware Transoceanic
06:00PM 49.6654 -137.0239 281° West 478 550 38,000  Level FlightAware Transoceanic
06:01PM 49.6900 -137.2210 281° West 478 550 38,000  Level FlightAware Transoceanic
06:02PM 49.7144 -137.4182 281° West 478 550 38,000  Level FlightAware Transoceanic
06:03PM 49.7384 -137.6157 281° West 478 550 38,000  Level FlightAware Transoceanic
06:04PM 49.7620 -137.8134 280° West 478 550 38,000  Level FlightAware Transoceanic
06:05PM 49.7854 -138.0113 280° West 478 550 38,000  Level FlightAware Transoceanic
06:06PM 49.8083 -138.2094 280° West 478 550 38,000  Level FlightAware Transoceanic
06:07PM 49.8310 -138.4076 280° West 478 550 38,000  Level FlightAware Transoceanic
06:07PM 49.8500 -138.4833 279° West 510 587 38,000  Level Oakland Oceanic (ODAPS)
06:08PM 49.8533 -138.6060 280° West 478 550 38,000  Level FlightAware Transoceanic
06:09PM 49.8753 -138.8046 280° West 478 550 38,000  Level FlightAware Transoceanic
06:10PM 49.8969 -139.0034 280° West 478 550 38,000  Level FlightAware Transoceanic
06:11PM 49.9182 -139.2024 279° West 478 550 38,000  Level FlightAware Transoceanic
06:12PM 49.9392 -139.4016 279° West 478 550 38,000  Level FlightAware Transoceanic
06:13PM 49.9798 -139.7828 278° West 510 587 38,000  Level FlightAware Transoceanic
06:14PM 50.0000 -140.0000 274° West 510 587 38,000  Level FlightAware Transoceanic
06:14PM 50.0000 -140.0000 274° West 515 593 38,000  Level Oakland Oceanic (ODAPS)
06:15PM 50.0091 -140.2168 274° West 510 587 38,000  Level FlightAware Transoceanic
06:16PM 50.0179 -140.4337 274° West 510 587 38,000  Level FlightAware Transoceanic
06:17PM 50.0262 -140.6506 273° West 510 587 38,000  Level FlightAware Transoceanic
06:18PM 50.0341 -140.8676 273° West 510 587 38,000  Level FlightAware Transoceanic
06:19PM 50.0416 -141.0847 273° West 510 587 38,000  Level FlightAware Transoceanic
06:20PM 50.0497 -141.3308 273° West 515 593 38,000  Level FlightAware Transoceanic
06:21PM 50.0565 -141.5529 273° West 515 593 38,000  Level FlightAware Transoceanic
06:21PM 50.0500 -141.5167 273° West 517 595 38,000  Level Oakland Oceanic (ODAPS)
06:22PM 50.0628 -141.7750 272° West 515 593 38,000  Level FlightAware Transoceanic
06:23PM 50.0688 -141.9971 272° West 515 593 38,000  Level FlightAware Transoceanic
06:24PM 50.0743 -142.2193 272° West 515 593 38,000  Level FlightAware Transoceanic
06:25PM 50.0794 -142.4416 272° West 515 593 38,000  Level FlightAware Transoceanic
06:26PM 50.0841 -142.6639 272° West 515 593 38,000  Level FlightAware Transoceanic
06:27PM 50.0832 -142.8557 272° West 517 595 38,000  Level FlightAware Transoceanic
06:28PM 50.0873 -143.0790 272° West 517 595 38,000  Level FlightAware Transoceanic
06:29PM 50.0909 -143.3023 271° West 517 595 38,000  Level FlightAware Transoceanic
06:30PM 50.0941 -143.5257 271° West 517 595 38,000  Level FlightAware Transoceanic
06:31PM 50.0968 -143.7492 271° West 517 595 38,000  Level FlightAware Transoceanic
06:32PM 50.0992 -143.9726 271° West 517 595 38,000  Level FlightAware Transoceanic
06:33PM 50.1011 -144.1961 271° West 517 595 38,000  Level FlightAware Transoceanic
06:34PM 50.1025 -144.4196 271° West 517 595 38,000  Level FlightAware Transoceanic
06:34PM 50.1000 -144.6167 270° West 514 592 38,000  Level Oakland Oceanic (ODAPS)
06:35PM 50.1036 -144.6431 270° West 517 595 38,000  Level FlightAware Transoceanic
06:36PM 50.1042 -144.8665 270° West 517 595 38,000  Level FlightAware Transoceanic
06:37PM 50.1044 -145.0901 270° West 517 595 38,000  Level FlightAware Transoceanic
06:38PM 50.1041 -145.3136 270° West 517 595 38,000  Level FlightAware Transoceanic
06:39PM 50.1035 -145.5370 270° West 517 595 38,000  Level FlightAware Transoceanic
06:40PM 50.1023 -145.7605 269° West 517 595 38,000  Level FlightAware Transoceanic
06:41PM 50.0984 -145.9642 269° West 514 592 38,000  Level FlightAware Transoceanic
06:42PM 50.0966 -146.1887 269° West 514 592 38,000  Level FlightAware Transoceanic
06:43PM 50.0943 -146.4133 269° West 514 592 38,000  Level FlightAware Transoceanic
06:44PM 50.0917 -146.6378 269° West 514 592 38,000  Level FlightAware Transoceanic
06:45PM 50.0886 -146.8623 269° West 514 592 38,000  Level FlightAware Transoceanic
06:46PM 50.0851 -147.0867 269° West 514 592 38,000  Level FlightAware Transoceanic
06:47PM 50.0811 -147.3111 268° West 514 592 38,000  Level FlightAware Transoceanic
06:48PM 50.0767 -147.5355 268° West 514 592 38,000  Level FlightAware Transoceanic
06:48PM 50.0833 -147.6833 268° West 518 596 38,000  Level Oakland Oceanic (ODAPS)
06:49PM 50.0719 -147.7599 268° West 514 592 38,000  Level FlightAware Transoceanic
06:50PM 50.0667 -147.9841 268° West 514 592 38,000  Level FlightAware Transoceanic
06:51PM 50.0610 -148.2084 268° West 514 592 38,000  Level FlightAware Transoceanic
06:52PM 50.0549 -148.4326 267° West 514 592 38,000  Level FlightAware Transoceanic
06:53PM 50.0483 -148.6567 267° West 514 592 38,000  Level FlightAware Transoceanic
06:54PM 50.0414 -148.8808 267° West 514 592 38,000  Level FlightAware Transoceanic
06:55PM 50.0389 -149.0743 267° West 518 596 38,000  Level FlightAware Transoceanic
06:56PM 50.0298 -149.3059 266° West 518 596 38,000  Level FlightAware Transoceanic
06:57PM 50.0204 -149.5374 266° West 518 596 38,000  Level FlightAware Transoceanic
06:58PM 50.0104 -149.7687 266° West 518 596 38,000  Level FlightAware Transoceanic
06:59PM 50.0000 -150.0000 274° West 518 596 38,000  Level FlightAware Transoceanic
06:59PM 50.0000 -150.0000 274° West 513 590 38,000  Level Oakland Oceanic (ODAPS)
07:00PM 50.0091 -150.2168 274° West 518 596 38,000  Level FlightAware Transoceanic
07:01PM 50.0179 -150.4337 274° West 518 596 38,000  Level FlightAware Transoceanic
07:02PM 50.0262 -150.6506 273° West 518 596 38,000  Level FlightAware Transoceanic
07:02PM 50.0333 -150.7833 273° West 509 586 38,000  Level Oakland Oceanic (ODAPS)
07:03PM 50.0341 -150.8676 273° West 518 596 38,000  Level FlightAware Transoceanic
07:04PM 50.0416 -151.0847 273° West 518 596 38,000  Level FlightAware Transoceanic
07:05PM 50.0497 -151.3308 273° West 513 590 38,000  Level FlightAware Transoceanic
07:06PM 50.0565 -151.5529 273° West 513 590 38,000  Level FlightAware Transoceanic
07:07PM 50.0628 -151.7750 272° West 513 590 38,000  Level FlightAware Transoceanic
07:08PM 50.0688 -151.9971 272° West 513 590 38,000  Level FlightAware Transoceanic
07:09PM 50.0743 -152.2193 272° West 513 590 38,000  Level FlightAware Transoceanic
07:10PM 50.0785 -152.3182 272° West 509 586 38,000  Level FlightAware Transoceanic
07:11PM 50.0833 -152.5376 272° West 509 586 38,000  Level FlightAware Transoceanic
07:12PM 50.0877 -152.7572 272° West 509 586 38,000  Level FlightAware Transoceanic
07:13PM 50.0916 -152.9767 272° West 509 586 38,000  Level FlightAware Transoceanic
07:14PM 50.0952 -153.1963 271° West 509 586 38,000  Level FlightAware Transoceanic
07:15PM 50.0984 -153.4159 271° West 509 586 38,000  Level FlightAware Transoceanic
07:16PM 50.1011 -153.6356 271° West 509 586 38,000  Level FlightAware Transoceanic
07:16PM 50.1000 -153.8167 271° West 502 578 38,000  Level Oakland Oceanic (ODAPS)
07:17PM 50.1034 -153.8552 271° West 509 586 38,000  Level FlightAware Transoceanic
07:18PM 50.1053 -154.0749 271° West 509 586 38,000  Level FlightAware Transoceanic
07:19PM 50.1068 -154.2946 271° West 509 586 38,000  Level FlightAware Transoceanic
07:20PM 50.1078 -154.5144 270° West 509 586 38,000  Level FlightAware Transoceanic
07:21PM 50.1085 -154.7341 270° West 509 586 38,000  Level FlightAware Transoceanic
07:22PM 50.1087 -154.9538 270° West 509 586 38,000  Level FlightAware Transoceanic
07:23PM 50.1060 -155.3109 270° West 502 578 38,000  Level FlightAware Transoceanic
07:24PM 50.1053 -155.5244 270° West 502 578 38,000  Level FlightAware Transoceanic
07:25PM 50.1041 -155.7378 269° West 502 578 38,000  Level FlightAware Transoceanic
07:26PM 50.1026 -155.9513 269° West 502 578 38,000  Level FlightAware Transoceanic
07:27PM 50.1008 -156.1647 269° West 502 578 38,000  Level FlightAware Transoceanic
07:28PM 50.0985 -156.3781 269° West 502 578 38,000  Level FlightAware Transoceanic
07:29PM 50.0958 -156.5915 269° West 502 578 38,000  Level FlightAware Transoceanic
07:30PM 50.0928 -156.8049 269° West 502 578 38,000  Level FlightAware Transoceanic
07:30PM 50.1000 -156.8167 268° West 500 575 38,000  Level Oakland Oceanic (ODAPS)
07:31PM 50.0893 -157.0182 268° West 502 578 38,000  Level FlightAware Transoceanic
07:32PM 50.0855 -157.2315 268° West 502 578 38,000  Level FlightAware Transoceanic
07:33PM 50.0812 -157.4448 268° West 502 578 38,000  Level FlightAware Transoceanic
07:34PM 50.0766 -157.6580 268° West 502 578 38,000  Level FlightAware Transoceanic
07:35PM 50.0716 -157.8712 268° West 502 578 38,000  Level FlightAware Transoceanic
07:36PM 50.0704 -158.0916 267° West 500 575 38,000  Level FlightAware Transoceanic
07:37PM 50.0642 -158.3039 267° West 500 575 38,000  Level FlightAware Transoceanic
07:38PM 50.0575 -158.5161 267° West 500 575 38,000  Level FlightAware Transoceanic
07:39PM 50.0504 -158.7283 267° West 500 575 38,000  Level FlightAware Transoceanic
07:40PM 50.0430 -158.9404 267° West 500 575 38,000  Level FlightAware Transoceanic
07:41PM 50.0352 -159.1525 267° West 500 575 38,000  Level FlightAware Transoceanic
07:42PM 50.0270 -159.3645 266° West 500 575 38,000  Level FlightAware Transoceanic
07:43PM 50.0184 -159.5764 266° West 500 575 38,000  Level FlightAware Transoceanic
07:44PM 50.0094 -159.7882 266° West 500 575 38,000  Level FlightAware Transoceanic
07:44PM 50.0167 -159.7333 265° West 494 568 38,000  Level Oakland Oceanic (ODAPS)
07:45PM 50.0000 -160.0000 274° West 500 575 38,000  Level FlightAware Transoceanic
07:45PM 50.0000 -160.0000 274° West 492 566 38,000  Level Oakland Oceanic (ODAPS)
07:46PM 50.0088 -160.2077 274° West 500 575 38,000  Level FlightAware Transoceanic
07:47PM 50.0172 -160.4156 274° West 500 575 38,000  Level FlightAware Transoceanic
07:48PM 50.0252 -160.6235 273° West 500 575 38,000  Level FlightAware Transoceanic
07:49PM 50.0328 -160.8314 273° West 500 575 38,000  Level FlightAware Transoceanic
07:50PM 50.0401 -161.0395 273° West 494 568 38,000  Level FlightAware Transoceanic
07:51PM 50.0479 -161.2741 273° West 492 566 38,000  Level FlightAware Transoceanic
07:52PM 50.0545 -161.4867 273° West 492 566 38,000  Level FlightAware Transoceanic
07:53PM 50.0607 -161.6993 273° West 492 566 38,000  Level FlightAware Transoceanic
07:54PM 50.0666 -161.9120 272° West 492 566 38,000  Level FlightAware Transoceanic
07:55PM 50.0720 -162.1248 272° West 492 566 38,000  Level FlightAware Transoceanic
07:56PM 50.0771 -162.3376 272° West 492 566 38,000  Level FlightAware Transoceanic
07:57PM 50.0817 -162.5504 272° West 492 566 38,000  Level FlightAware Transoceanic
07:58PM 50.0860 -162.7633 272° West 492 566 38,000  Level FlightAware Transoceanic
07:58PM 50.0833 -162.6500 272° West 490 564 38,000  Level Oakland Oceanic (ODAPS)
07:59PM 50.0899 -162.9762 272° West 492 566 38,000  Level FlightAware Transoceanic
08:00PM 50.0934 -163.1891 271° West 492 566 38,000  Level FlightAware Transoceanic
08:01PM 50.0966 -163.4021 271° West 492 566 38,000  Level FlightAware Transoceanic
08:02PM 50.0993 -163.6151 271° West 492 566 38,000  Level FlightAware Transoceanic
08:03PM 50.1016 -163.8281 271° West 492 566 38,000  Level FlightAware Transoceanic
08:04PM 50.1020 -163.9107 271° West 490 564 38,000  Level FlightAware Transoceanic
08:05PM 50.1038 -164.1209 271° West 490 564 38,000  Level FlightAware Transoceanic
08:06PM 50.1052 -164.3311 271° West 490 564 38,000  Level FlightAware Transoceanic
08:07PM 50.1063 -164.5413 270° West 490 564 38,000  Level FlightAware Transoceanic
08:08PM 50.1069 -164.7516 270° West 490 564 38,000  Level FlightAware Transoceanic
08:09PM 50.1072 -164.9618 270° West 490 564 38,000  Level FlightAware Transoceanic
08:10PM 50.1071 -165.1720 270° West 490 564 38,000  Level FlightAware Transoceanic
08:11PM 50.1066 -165.3823 270° West 490 564 38,000  Level FlightAware Transoceanic
08:12PM 50.1057 -165.5925 270° West 490 564 38,000  Level FlightAware Transoceanic
08:12PM 50.1000 -165.6167 270° West 493 567 38,000  Level Oakland Oceanic (ODAPS)
08:13PM 50.1045 -165.8027 269° West 490 564 38,000  Level FlightAware Transoceanic
08:14PM 50.1029 -166.0129 269° West 490 564 38,000  Level FlightAware Transoceanic
08:15PM 50.1009 -166.2231 269° West 490 564 38,000  Level FlightAware Transoceanic
08:16PM 50.0985 -166.4333 269° West 490 564 38,000  Level FlightAware Transoceanic
08:17PM 50.0957 -166.6434 269° West 490 564 38,000  Level FlightAware Transoceanic
08:18PM 50.0873 -166.9334 269° West 493 567 38,000  Level FlightAware Transoceanic
08:19PM 50.0838 -167.1527 268° West 493 567 38,000  Level FlightAware Transoceanic
08:20PM 50.0798 -167.3721 268° West 493 567 38,000  Level FlightAware Transoceanic
08:21PM 50.0754 -167.5914 268° West 493 567 38,000  Level FlightAware Transoceanic
08:22PM 50.0706 -167.8106 268° West 493 567 38,000  Level FlightAware Transoceanic
08:23PM 50.0654 -168.0298 268° West 493 567 38,000  Level FlightAware Transoceanic
08:24PM 50.0598 -168.2490 268° West 493 567 38,000  Level FlightAware Transoceanic
08:25PM 50.0538 -168.4681 267° West 493 567 38,000  Level FlightAware Transoceanic
08:25PM 50.0500 -168.5333 268° West 481 554 38,000  Level Oakland Oceanic (ODAPS)
08:26PM 50.0473 -168.6871 267° West 493 567 38,000  Level FlightAware Transoceanic
08:27PM 50.0405 -168.9061 267° West 493 567 38,000  Level FlightAware Transoceanic
08:28PM 50.0332 -169.1250 267° West 493 567 38,000  Level FlightAware Transoceanic
08:29PM 50.0255 -169.3439 267° West 493 567 38,000  Level FlightAware Transoceanic
08:30PM 50.0174 -169.5627 267° West 493 567 38,000  Level FlightAware Transoceanic
08:31PM 50.0089 -169.7814 266° West 493 567 38,000  Level FlightAware Transoceanic
08:32PM 50.0083 -169.7907 267° West 481 554 38,000  Level FlightAware Transoceanic
08:33PM 50.0000 -170.0000 249° West 481 554 38,000  Level FlightAware Transoceanic
08:33PM 50.0000 -170.0000 249° West 473 544 38,000  Level Oakland Oceanic (ODAPS)
08:34PM 49.9559 -170.1823 249° West 481 554 38,000  Level FlightAware Transoceanic
08:35PM 49.9115 -170.3643 249° West 481 554 38,000  Level FlightAware Transoceanic
08:36PM 49.8668 -170.5460 249° West 481 554 38,000  Level FlightAware Transoceanic
08:37PM 49.8218 -170.7273 249° West 481 554 38,000  Level FlightAware Transoceanic
08:38PM 49.7766 -170.9083 249° West 481 554 38,000  Level FlightAware Transoceanic
08:39PM 49.7160 -171.1480 249° West 473 544 38,000 540 Level FlightAware Transoceanic
08:39PM 49.6833 -171.2833 248° West 471 542 39,000  Climbing Oakland Oceanic (ODAPS)
08:40PM 49.6676 -171.3380 248° West 473 544 38,000 -840 Descending FlightAware Transoceanic
08:41PM 49.6189 -171.5276 248° West 473 544 38,000  Level FlightAware Transoceanic
08:42PM 49.5699 -171.7168 248° West 473 544 38,000  Level FlightAware Transoceanic
08:43PM 49.5205 -171.9057 248° West 473 544 38,000  Level FlightAware Transoceanic
08:44PM 49.4709 -172.0942 248° West 473 544 38,000  Level FlightAware Transoceanic
08:45PM 49.4209 -172.2823 248° West 473 544 38,000 480 Level FlightAware Transoceanic
08:46PM 49.3848 -172.4228 248° West 471 542 39,000 480 Climbing FlightAware Transoceanic
08:47PM 49.3340 -172.6114 247° West 471 542 39,000  Level FlightAware Transoceanic
08:48PM 49.2829 -172.7996 247° West 471 542 39,000  Level FlightAware Transoceanic
08:49PM 49.2314 -172.9873 247° West 471 542 39,000  Level FlightAware Transoceanic
08:50PM 49.1797 -173.1747 247° West 471 542 39,000  Level FlightAware Transoceanic
08:51PM 49.1276 -173.3617 247° West 471 542 39,000  Level FlightAware Transoceanic
08:52PM 49.0753 -173.5483 247° West 471 542 39,000  Level FlightAware Transoceanic
08:53PM 49.0226 -173.7345 247° West 471 542 39,000  Level FlightAware Transoceanic
08:54PM 48.9697 -173.9203 246° West 471 542 39,000  Level FlightAware Transoceanic
08:54PM 49.0000 -173.8333 246° West 471 542 39,000  Level Oakland Oceanic (ODAPS)
08:55PM 48.9164 -174.1058 246° West 471 542 39,000  Level FlightAware Transoceanic
08:56PM 48.8629 -174.2908 246° West 471 542 39,000  Level FlightAware Transoceanic
08:57PM 48.8090 -174.4754 246° West 471 542 39,000  Level FlightAware Transoceanic
08:58PM 48.7549 -174.6596 246° West 471 542 39,000  Level FlightAware Transoceanic
08:59PM 48.7005 -174.8435 246° West 471 542 39,000  Level FlightAware Transoceanic
09:00PM 48.6373 -175.0698 246° West 471 542 39,000  Level FlightAware Transoceanic
09:01PM 48.5845 -175.2450 245° Southwest 471 542 39,000  Level FlightAware Transoceanic
09:02PM 48.5313 -175.4198 245° Southwest 471 542 39,000  Level FlightAware Transoceanic
09:03PM 48.4779 -175.5942 245° Southwest 471 542 39,000  Level FlightAware Transoceanic
09:04PM 48.4242 -175.7683 245° Southwest 471 542 39,000  Level FlightAware Transoceanic
09:05PM 48.3703 -175.9420 245° Southwest 471 542 39,000  Level FlightAware Transoceanic
09:06PM 48.3161 -176.1154 245° Southwest 471 542 39,000  Level FlightAware Transoceanic
09:07PM 48.2617 -176.2883 245° Southwest 471 542 39,000  Level FlightAware Transoceanic
09:07PM 48.2500 -176.3167 245° Southwest 462 532 39,000  Level Oakland Oceanic (ODAPS)
09:08PM 48.2069 -176.4609 244° Southwest 471 542 39,000  Level FlightAware Transoceanic
09:09PM 48.1520 -176.6331 244° Southwest 471 542 39,000  Level FlightAware Transoceanic
09:10PM 48.0967 -176.8050 244° Southwest 471 542 39,000  Level FlightAware Transoceanic
09:11PM 48.0413 -176.9765 244° Southwest 471 542 39,000  Level FlightAware Transoceanic
09:12PM 47.9855 -177.1476 244° Southwest 471 542 39,000  Level FlightAware Transoceanic
09:13PM 47.9209 -177.3387 244° Southwest 462 532 39,000  Level FlightAware Transoceanic
09:14PM 47.8651 -177.5078 244° Southwest 462 532 39,000  Level FlightAware Transoceanic
09:15PM 47.8092 -177.6765 244° Southwest 462 532 39,000  Level FlightAware Transoceanic
09:16PM 47.7529 -177.8448 244° Southwest 462 532 39,000  Level FlightAware Transoceanic
09:17PM 47.6964 -178.0128 243° Southwest 462 532 39,000  Level FlightAware Transoceanic
09:18PM 47.6397 -178.1804 243° Southwest 462 532 39,000  Level FlightAware Transoceanic
09:19PM 47.5828 -178.3476 243° Southwest 462 532 39,000  Level FlightAware Transoceanic
09:20PM 47.5256 -178.5145 243° Southwest 462 532 39,000  Level FlightAware Transoceanic
09:21PM 47.4681 -178.6810 243° Southwest 462 532 39,000  Level FlightAware Transoceanic
09:21PM 47.4667 -178.6833 243° Southwest 452 520 39,000  Level Oakland Oceanic (ODAPS)
09:22PM 47.4104 -178.8472 243° Southwest 462 532 39,000  Level FlightAware Transoceanic
09:23PM 47.3525 -179.0129 243° Southwest 462 532 39,000  Level FlightAware Transoceanic
09:24PM 47.2944 -179.1783 243° Southwest 462 532 39,000  Level FlightAware Transoceanic
09:25PM 47.2360 -179.3434 242° Southwest 462 532 39,000  Level FlightAware Transoceanic
09:26PM 47.1773 -179.5081 242° Southwest 462 532 39,000  Level FlightAware Transoceanic
09:27PM 47.1181 -179.6730 242° Southwest 452 520 39,000  Level FlightAware Transoceanic
09:28PM 47.0592 -179.8367 242° Southwest 452 520 39,000  Level FlightAware Transoceanic
09:29PM 47.0000 -180.0000 239° Southwest 452 520 39,000  Level FlightAware Transoceanic
09:29PM 47.0000 180.0000 239° Southwest 461 531 39,000  Level Oakland Oceanic (ODAPS)
09:30PM 46.9341 179.8425 238° Southwest 452 520 39,000  Level FlightAware Transoceanic
09:31PM 46.8680 179.6853 238° Southwest 452 520 39,000  Level FlightAware Transoceanic
09:32PM 46.8017 179.5286 238° Southwest 452 520 39,000  Level FlightAware Transoceanic
09:33PM 46.7352 179.3722 238° Southwest 452 520 39,000  Level FlightAware Transoceanic
09:34PM 46.6685 179.2162 238° Southwest 452 520 39,000  Level FlightAware Transoceanic
09:35PM 46.5956 179.0469 238° Southwest 461 531 39,000 -1,620 Level FlightAware Transoceanic
09:35PM 46.6333 179.1333 238° Southwest 470 541 37,000  Descending Oakland Oceanic (ODAPS)
09:36PM 46.5275 178.8894 238° Southwest 461 531 39,000 1,140 Climbing FlightAware Transoceanic
09:37PM 46.4591 178.7324 238° Southwest 461 531 39,000  Level FlightAware Transoceanic
09:38PM 46.3905 178.5757 238° Southwest 461 531 39,000  Level FlightAware Transoceanic
09:39PM 46.3217 178.4194 237° Southwest 461 531 39,000  Level FlightAware Transoceanic
09:40PM 46.2527 178.2635 237° Southwest 461 531 39,000 -1,020 Level FlightAware Transoceanic
09:41PM 46.2113 178.1695 237° Southwest 470 541 37,000 -1,020 Descending FlightAware Transoceanic
09:42PM 46.1401 178.0103 237° Southwest 470 541 37,000  Level FlightAware Transoceanic
09:43PM 46.0688 177.8515 237° Southwest 470 541 37,000  Level FlightAware Transoceanic
09:44PM 45.9972 177.6932 237° Southwest 470 541 37,000  Level FlightAware Transoceanic
09:45PM 45.9254 177.5352 237° Southwest 470 541 37,000  Level FlightAware Transoceanic
09:46PM 45.8534 177.3777 237° Southwest 470 541 37,000  Level FlightAware Transoceanic
09:47PM 45.7812 177.2205 237° Southwest 470 541 37,000  Level FlightAware Transoceanic
09:48PM 45.7088 177.0638 236° Southwest 470 541 37,000  Level FlightAware Transoceanic
09:49PM 45.6362 176.9075 236° Southwest 470 541 37,000  Level FlightAware Transoceanic
09:49PM 45.7167 177.1000 237° Southwest 450 518 37,000  Level Oakland Oceanic (ODAPS)
09:50PM 45.5633 176.7516 236° Southwest 470 541 37,000  Level FlightAware Transoceanic
09:51PM 45.4902 176.5960 236° Southwest 470 541 37,000  Level FlightAware Transoceanic
09:52PM 45.4169 176.4409 236° Southwest 470 541 37,000  Level FlightAware Transoceanic
09:53PM 45.3434 176.2862 236° Southwest 470 541 37,000  Level FlightAware Transoceanic
09:54PM 45.2697 176.1319 236° Southwest 470 541 37,000  Level FlightAware Transoceanic
09:55PM 45.3030 176.2179 236° Southwest 450 518 37,000  Level FlightAware Transoceanic
09:56PM 45.2334 176.0722 236° Southwest 450 518 37,000  Level FlightAware Transoceanic
09:57PM 45.1636 175.9268 236° Southwest 450 518 37,000  Level FlightAware Transoceanic
09:58PM 45.0936 175.7817 236° Southwest 450 518 37,000  Level FlightAware Transoceanic
09:59PM 45.0234 175.6370 235° Southwest 450 518 37,000  Level FlightAware Transoceanic
10:00PM 44.9531 175.4927 235° Southwest 450 518 37,000  Level FlightAware Transoceanic
10:01PM 44.8826 175.3487 235° Southwest 450 518 37,000  Level FlightAware Transoceanic
10:02PM 44.8119 175.2051 235° Southwest 450 518 37,000  Level FlightAware Transoceanic
10:02PM 44.7833 175.1167 235° Southwest 447 514 37,000  Level Oakland Oceanic (ODAPS)
10:03PM 44.7410 175.0618 235° Southwest 450 518 37,000  Level FlightAware Transoceanic
10:04PM 44.6699 174.9189 235° Southwest 450 518 37,000  Level FlightAware Transoceanic
10:05PM 44.5987 174.7763 235° Southwest 450 518 37,000  Level FlightAware Transoceanic
10:06PM 44.5273 174.6341 235° Southwest 450 518 37,000  Level FlightAware Transoceanic
10:07PM 44.4557 174.4922 235° Southwest 450 518 37,000  Level FlightAware Transoceanic
10:08PM 44.3839 174.3507 235° Southwest 450 518 37,000  Level FlightAware Transoceanic
10:09PM 44.3478 174.2546 234° Southwest 447 514 37,000  Level FlightAware Transoceanic
10:10PM 44.2746 174.1122 234° Southwest 447 514 37,000  Level FlightAware Transoceanic
10:11PM 44.2012 173.9701 234° Southwest 447 514 37,000  Level FlightAware Transoceanic
10:12PM 44.1276 173.8284 234° Southwest 447 514 37,000  Level FlightAware Transoceanic
10:13PM 44.0539 173.6870 234° Southwest 447 514 37,000  Level FlightAware Transoceanic
10:14PM 43.9800 173.5460 234° Southwest 447 514 37,000  Level FlightAware Transoceanic
10:15PM 43.9059 173.4053 234° Southwest 447 514 37,000  Level FlightAware Transoceanic
10:16PM 43.8316 173.2650 234° Southwest 447 514 37,000  Level FlightAware Transoceanic
10:16PM 43.7667 173.1667 234° Southwest 451 519 37,000  Level Oakland Oceanic (ODAPS)
10:17PM 43.7572 173.1251 234° Southwest 447 514 37,000  Level FlightAware Transoceanic
10:18PM 43.6826 172.9855 233° Southwest 447 514 37,000  Level FlightAware Transoceanic
10:19PM 43.6078 172.8462 233° Southwest 447 514 37,000  Level FlightAware Transoceanic
10:20PM 43.5329 172.7073 233° Southwest 447 514 37,000  Level FlightAware Transoceanic
10:21PM 43.4578 172.5687 233° Southwest 447 514 37,000  Level FlightAware Transoceanic
10:22PM 43.3825 172.4305 233° Southwest 447 514 37,000  Level FlightAware Transoceanic
10:23PM 43.3143 172.3230 233° Southwest 451 519 37,000  Level FlightAware Transoceanic
10:24PM 43.2383 172.1836 233° Southwest 451 519 37,000  Level FlightAware Transoceanic
10:25PM 43.1621 172.0446 233° Southwest 451 519 37,000  Level FlightAware Transoceanic
10:26PM 43.0858 171.9059 233° Southwest 451 519 37,000  Level FlightAware Transoceanic
10:27PM 43.0093 171.7675 233° Southwest 451 519 37,000  Level FlightAware Transoceanic
10:28PM 42.9326 171.6295 233° Southwest 451 519 37,000  Level FlightAware Transoceanic
10:29PM 42.8558 171.4919 233° Southwest 451 519 37,000  Level FlightAware Transoceanic
10:30PM 42.7788 171.3546 233° Southwest 451 519 37,000  Level FlightAware Transoceanic
10:30PM 42.7167 171.2500 233° Southwest 452 520 37,000  Level Oakland Oceanic (ODAPS)
10:31PM 42.7016 171.2176 232° Southwest 451 519 37,000  Level FlightAware Transoceanic
10:32PM 42.6243 171.0809 232° Southwest 451 519 37,000  Level FlightAware Transoceanic
10:33PM 42.5468 170.9447 232° Southwest 451 519 37,000  Level FlightAware Transoceanic
10:34PM 42.4692 170.8087 232° Southwest 451 519 37,000  Level FlightAware Transoceanic
10:35PM 42.3914 170.6731 232° Southwest 451 519 37,000  Level FlightAware Transoceanic
10:36PM 42.3202 170.5520 232° Southwest 452 520 37,000  Level FlightAware Transoceanic
10:37PM 42.2404 170.4135 232° Southwest 452 520 37,000  Level FlightAware Transoceanic
10:38PM 42.1604 170.2753 232° Southwest 452 520 37,000  Level FlightAware Transoceanic
10:39PM 42.0803 170.1375 232° Southwest 452 520 37,000  Level FlightAware Transoceanic
10:39PM 42.0000 170.0000 252° West 443 510 37,000  Level Oakland Oceanic (ODAPS)
10:40PM 42.0000 170.0000 252° West 452 520 37,000  Level FlightAware Transoceanic
10:41PM 41.9612 169.8419 252° West 452 520 37,000  Level FlightAware Transoceanic
10:42PM 41.9221 169.6840 252° West 452 520 37,000  Level FlightAware Transoceanic
10:43PM 41.8829 169.5263 251° West 452 520 37,000  Level FlightAware Transoceanic
10:44PM 41.8434 169.3688 251° West 452 520 37,000  Level FlightAware Transoceanic
10:44PM 41.8167 169.2500 251° West 446 513 37,000  Level Oakland Oceanic (ODAPS)
10:45PM 41.8038 169.2115 251° West 452 520 37,000  Level FlightAware Transoceanic
10:46PM 41.7639 169.0544 251° West 443 510 37,000  Level FlightAware Transoceanic
10:47PM 41.7238 168.8975 251° West 443 510 37,000  Level FlightAware Transoceanic
10:48PM 41.6834 168.7408 251° West 443 510 37,000  Level FlightAware Transoceanic
10:49PM 41.6429 168.5842 251° West 443 510 37,000  Level FlightAware Transoceanic
10:50PM 41.6022 168.4279 251° West 443 510 37,000  Level FlightAware Transoceanic
10:51PM 41.5365 168.1673 251° West 446 513 37,000  Level FlightAware Transoceanic
10:52PM 41.4956 168.0133 250° West 446 513 37,000  Level FlightAware Transoceanic
10:53PM 41.4546 167.8596 250° West 446 513 37,000  Level FlightAware Transoceanic
10:54PM 41.4133 167.7061 250° West 446 513 37,000  Level FlightAware Transoceanic
10:55PM 41.3718 167.5528 250° West 446 513 37,000  Level FlightAware Transoceanic
10:56PM 41.3302 167.3997 250° West 446 513 37,000  Level FlightAware Transoceanic
10:57PM 41.2883 167.2467 250° West 446 513 37,000  Level FlightAware Transoceanic
10:58PM 41.2462 167.0940 250° West 446 513 37,000  Level FlightAware Transoceanic
10:58PM 41.2500 167.1000 250° West 447 514 37,000  Level Oakland Oceanic (ODAPS)
10:59PM 41.2039 166.9415 250° West 446 513 37,000  Level FlightAware Transoceanic
11:00PM 41.1615 166.7891 250° West 446 513 37,000  Level FlightAware Transoceanic
11:01PM 41.1188 166.6370 250° West 446 513 37,000  Level FlightAware Transoceanic
11:02PM 41.0759 166.4850 249° West 446 513 37,000  Level FlightAware Transoceanic
11:03PM 41.0328 166.3333 249° West 446 513 37,000  Level FlightAware Transoceanic
11:04PM 40.9929 166.1869 249° West 447 514 37,000  Level FlightAware Transoceanic
11:05PM 40.9494 166.0355 249° West 447 514 37,000  Level FlightAware Transoceanic
11:06PM 40.9056 165.8842 249° West 447 514 37,000  Level FlightAware Transoceanic
11:07PM 40.8617 165.7331 249° West 447 514 37,000  Level FlightAware Transoceanic
11:08PM 40.8175 165.5822 249° West 447 514 37,000  Level FlightAware Transoceanic
11:09PM 40.7732 165.4315 249° West 447 514 37,000  Level FlightAware Transoceanic
11:10PM 40.7287 165.2811 249° West 447 514 37,000  Level FlightAware Transoceanic
11:11PM 40.6839 165.1308 249° West 447 514 37,000  Level FlightAware Transoceanic
11:12PM 40.6390 164.9807 248° West 447 514 37,000  Level FlightAware Transoceanic
11:13PM 40.5939 164.8309 248° West 447 514 37,000  Level FlightAware Transoceanic
11:14PM 40.5486 164.6812 248° West 447 514 37,000  Level FlightAware Transoceanic
11:15PM 40.5031 164.5317 248° West 447 514 37,000  Level FlightAware Transoceanic
11:16PM 40.4574 164.3825 248° West 447 514 37,000  Level FlightAware Transoceanic
11:17PM 40.4115 164.2334 248° West 447 514 37,000  Level FlightAware Transoceanic
11:18PM 40.3654 164.0845 248° West 447 514 37,000  Level FlightAware Transoceanic
11:19PM 40.3192 163.9359 248° West 447 514 37,000  Level FlightAware Transoceanic
11:20PM 40.2727 163.7874 248° West 447 514 37,000  Level FlightAware Transoceanic
11:21PM 40.2261 163.6392 248° West 447 514 37,000  Level FlightAware Transoceanic
11:22PM 40.1792 163.4912 247° West 447 514 37,000  Level FlightAware Transoceanic
11:23PM 40.1322 163.3433 247° West 447 514 37,000  Level FlightAware Transoceanic
11:24PM 40.0850 163.1957 247° West 447 514 37,000  Level FlightAware Transoceanic
11:25PM 40.0376 163.0483 247° West 447 514 37,000  Level FlightAware Transoceanic
11:26PM 39.9900 162.9011 247° West 447 514 37,000  Level FlightAware Transoceanic
11:27PM 39.9422 162.7540 247° West 447 514 37,000  Level FlightAware Transoceanic
11:28PM 39.8943 162.6072 247° West 447 514 37,000  Level FlightAware Transoceanic
11:29PM 39.8461 162.4606 247° West 447 514 37,000  Level FlightAware Transoceanic
11:30PM 39.7978 162.3143 247° West 447 514 37,000  Level FlightAware Transoceanic
11:31PM 39.7493 162.1681 247° West 447 514 37,000  Level FlightAware Transoceanic
11:32PM 39.7006 162.0221 247° West 447 514 37,000  Level FlightAware Transoceanic
11:33PM 39.6517 161.8763 246° West 447 514 37,000  Level FlightAware Transoceanic
11:34PM 39.6027 161.7307 246° West 447 514 37,000  Level FlightAware Transoceanic
11:35PM 39.5534 161.5854 246° West 447 514 37,000  Level FlightAware Transoceanic
11:36PM 39.5040 161.4402 246° West 447 514 37,000  Level FlightAware Transoceanic
11:37PM 39.4544 161.2953 246° West 447 514 37,000  Level FlightAware Transoceanic
11:38PM 39.4046 161.1505 246° West 447 514 37,000  Level FlightAware Transoceanic
11:39PM 39.3547 161.0060 246° West 447 514 37,000  Level FlightAware Transoceanic
11:40PM 39.3045 160.8616 246° West 447 514 37,000  Level FlightAware Transoceanic
11:41PM 39.2542 160.7175 246° West 447 514 37,000  Level FlightAware Transoceanic
11:42PM 39.2037 160.5736 246° West 447 514 37,000  Level FlightAware Transoceanic
11:43PM 39.1531 160.4299 245° Southwest 447 514 37,000  Level FlightAware Transoceanic
11:44PM 39.1022 160.2864 245° Southwest 447 514 37,000  Level FlightAware Transoceanic
11:45PM 39.0512 160.1431 245° Southwest 447 514 37,000  Level FlightAware Transoceanic
11:46PM 39.0000 160.0000 259° West 447 514 37,000  Level FlightAware Transoceanic
11:47PM 38.9762 159.8446 259° West 447 514 37,000  Level FlightAware Transoceanic
11:48PM 38.9521 159.6893 259° West 447 514 37,000  Level FlightAware Transoceanic
11:49PM 38.9278 159.5342 259° West 447 514 37,000  Level FlightAware Transoceanic
11:50PM 38.9034 159.3791 258° West 447 514 37,000  Level FlightAware Transoceanic
11:51PM 38.8787 159.2241 258° West 447 514 37,000  Level FlightAware Transoceanic
11:52PM 38.8538 159.0693 258° West 447 514 37,000  Level FlightAware Transoceanic
11:53PM 38.8287 158.9146 258° West 447 514 37,000  Level FlightAware Transoceanic
11:54PM 38.8035 158.7599 258° West 447 514 37,000  Level FlightAware Transoceanic
11:55PM 38.7780 158.6054 258° West 447 514 37,000  Level FlightAware Transoceanic
11:56PM 38.7523 158.4510 258° West 447 514 37,000  Level FlightAware Transoceanic
11:57PM 38.7264 158.2967 258° West 447 514 37,000  Level FlightAware Transoceanic
11:58PM 38.7003 158.1425 258° West 447 514 37,000  Level FlightAware Transoceanic
11:59PM 38.6740 157.9884 258° West 447 514 37,000  Level FlightAware Transoceanic
12:00AM 38.6475 157.8345 258° West 447 514 37,000  Level FlightAware Transoceanic
12:01AM 38.6208 157.6806 257° West 447 514 37,000  Level FlightAware Transoceanic
12:02AM 38.5939 157.5269 257° West 447 514 37,000  Level FlightAware Transoceanic
12:03AM 38.5667 157.3733 257° West 447 514 37,000  Level FlightAware Transoceanic
12:04AM 38.5394 157.2198 257° West 447 514 37,000  Level FlightAware Transoceanic
12:05AM 38.5119 157.0664 257° West 447 514 37,000  Level FlightAware Transoceanic
12:06AM 38.4842 156.9131 257° West 447 514 37,000  Level FlightAware Transoceanic
12:07AM 38.4563 156.7600 257° West 447 514 37,000  Level FlightAware Transoceanic
12:08AM 38.4282 156.6069 257° West 447 514 37,000  Level FlightAware Transoceanic
12:09AM 38.3999 156.4540 257° West 447 514 37,000  Level FlightAware Transoceanic
12:10AM 38.3714 156.3012 257° West 447 514 37,000  Level FlightAware Transoceanic
12:11AM 38.3427 156.1486 256° West 447 514 37,000  Level FlightAware Transoceanic
12:12AM 38.3138 155.9960 256° West 447 514 37,000  Level FlightAware Transoceanic
12:13AM 38.2847 155.8436 256° West 447 514 37,000  Level FlightAware Transoceanic
12:14AM 38.2554 155.6913 256° West 447 514 37,000  Level FlightAware Transoceanic
12:15AM 38.2259 155.5391 256° West 447 514 37,000  Level FlightAware Transoceanic
12:16AM 38.1962 155.3871 256° West 447 514 37,000  Level FlightAware Transoceanic
12:17AM 38.1664 155.2351 256° West 447 514 37,000  Level FlightAware Transoceanic
12:18AM 38.1363 155.0833 256° West 447 514 37,000  Level FlightAware Transoceanic
12:19AM 38.1060 154.9316 256° West 447 514 37,000  Level FlightAware Transoceanic
12:20AM 38.0755 154.7801 256° West 447 514 37,000  Level FlightAware Transoceanic
12:21AM 38.0449 154.6287 256° West 447 514 37,000  Level FlightAware Transoceanic
12:22AM 38.0140 154.4774 255° West 447 514 37,000  Level FlightAware Transoceanic
12:23AM 37.9830 154.3262 255° West 447 514 37,000  Level FlightAware Transoceanic
12:24AM 37.9517 154.1751 255° West 447 514 37,000  Level FlightAware Transoceanic
12:25AM 37.9203 154.0242 255° West 447 514 37,000  Level FlightAware Transoceanic
12:26AM 37.8887 153.8734 255° West 447 514 37,000  Level FlightAware Transoceanic
12:27AM 37.8568 153.7228 255° West 447 514 37,000  Level FlightAware Transoceanic
12:28AM 37.8248 153.5723 255° West 447 514 37,000  Level FlightAware Transoceanic
12:29AM 37.7926 153.4219 255° West 447 514 37,000  Level FlightAware Transoceanic
12:30AM 37.7602 153.2716 255° West 447 514 37,000  Level FlightAware Transoceanic
12:31AM 37.7276 153.1215 255° West 447 514 37,000  Level FlightAware Transoceanic
12:32AM 37.6949 152.9715 255° West 447 514 37,000  Level FlightAware Transoceanic
12:33AM 37.6619 152.8216 254° West 447 514 37,000  Level FlightAware Transoceanic
12:34AM 37.6287 152.6719 254° West 447 514 37,000  Level FlightAware Transoceanic
12:35AM 37.5954 152.5223 254° West 447 514 37,000  Level FlightAware Transoceanic
12:36AM 37.5619 152.3728 254° West 447 514 37,000  Level FlightAware Transoceanic
12:37AM 37.5281 152.2235 254° West 447 514 37,000  Level FlightAware Transoceanic
12:38AM 37.4942 152.0743 254° West 447 514 37,000  Level FlightAware Transoceanic
12:39AM 37.4601 151.9252 254° West 447 514 37,000  Level FlightAware Transoceanic
12:40AM 37.4258 151.7763 254° West 447 514 37,000  Level FlightAware Transoceanic
12:41AM 37.3914 151.6275 254° West 447 514 37,000  Level FlightAware Transoceanic
12:42AM 37.3567 151.4789 254° West 447 514 37,000  Level FlightAware Transoceanic
12:43AM 37.3219 151.3303 254° West 447 514 37,000  Level FlightAware Transoceanic
12:44AM 37.2868 151.1820 253° West 447 514 37,000  Level FlightAware Transoceanic
12:45AM 37.2516 151.0337 253° West 447 514 37,000  Level FlightAware Transoceanic
12:46AM 37.2162 150.8856 253° West 447 514 37,000  Level FlightAware Transoceanic
12:47AM 37.1807 150.7377 253° West 447 514 37,000  Level FlightAware Transoceanic
12:48AM 37.1449 150.5899 253° West 447 514 37,000  Level FlightAware Transoceanic
12:49AM 37.1089 150.4422 253° West 447 514 37,000  Level FlightAware Transoceanic
12:50AM 37.0728 150.2946 253° West 447 514 37,000  Level FlightAware Transoceanic
12:51AM 37.0365 150.1472 253° West 447 514 37,000 -60 Level FlightAware Transoceanic
12:52AM 36.9986 149.9943 253° West  Level FlightAware Approximate
12:53AM 36.9992 149.9881 265° West  Level FlightAware Approximate
12:54AM 36.9880 149.8287 265° West  Level FlightAware Approximate
12:55AM 36.9765 149.6693 265° West  Level FlightAware Approximate
12:56AM 36.9649 149.5099 265° West  Level FlightAware Approximate
12:57AM 36.9530 149.3506 265° West  Level FlightAware Approximate
12:58AM 36.9410 149.1913 265° West  Level FlightAware Approximate
12:59AM 36.9287 149.0321 265° West  Level FlightAware Approximate
01:00AM 36.9162 148.8729 264° West  Level FlightAware Approximate
01:01AM 36.9035 148.7138 264° West  Level FlightAware Approximate
01:02AM 36.8906 148.5547 264° West  Level FlightAware Approximate
01:03AM 36.8688 148.3977 255° West  Level FlightAware Approximate
01:04AM 36.8360 148.2433 255° West  Level FlightAware Approximate
01:05AM 36.8030 148.0890 255° West  Level FlightAware Approximate
01:06AM 36.7698 147.9348 255° West  Level FlightAware Approximate
01:07AM 36.7364 147.7808 255° West  Level FlightAware Approximate
01:08AM 36.7029 147.6269 255° West  Level FlightAware Approximate
01:09AM 36.6691 147.4731 255° West  Level FlightAware Approximate
01:10AM 36.6351 147.3194 255° West  Level FlightAware Approximate
01:11AM 36.6009 147.1660 255° West  Level FlightAware Approximate
01:12AM 36.5666 147.0126 254° West  Level FlightAware Approximate
01:13AM 36.5320 146.8593 254° West  Level FlightAware Approximate
01:14AM 36.4972 146.7063 254° West  Level FlightAware Approximate
01:15AM 36.4623 146.5533 254° West  Level FlightAware Approximate
01:16AM 36.4271 146.4005 254° West  Level FlightAware Approximate
01:17AM 36.3890 146.2490 248° West  Level FlightAware Approximate
01:18AM 36.3415 146.1016 248° West  Level FlightAware Approximate
01:19AM 36.2938 145.9543 248° West  Level FlightAware Approximate
01:20AM 36.2460 145.8073 248° West  Level FlightAware Approximate
01:21AM 36.1984 145.6602 253° West  Level FlightAware Approximate
01:22AM 36.1606 145.5089 253° West  Level FlightAware Approximate
01:23AM 36.1321 145.3547 259° West  Level FlightAware Approximate
01:24AM 36.1071 145.1995 259° West  Level FlightAware Approximate
01:25AM 36.0818 145.0444 259° West  Level FlightAware Approximate
01:26AM 36.0564 144.8894 259° West  Level FlightAware Approximate
01:27AM 36.0308 144.7345 258° West  Level FlightAware Approximate
01:28AM 36.0050 144.5796 258° West  Level FlightAware Approximate
01:29AM 35.9790 144.4249 258° West  Level FlightAware Approximate
01:30AM 35.9534 144.2740 258° West  Level FlightAware Approximate
01:31AM 35.9276 144.1232 258° West  Level FlightAware Approximate
01:32AM 35.9017 143.9725 258° West  Level FlightAware Approximate
01:33AM 35.8850 143.8209 273° West  Level FlightAware Approximate
01:34AM 35.8905 143.6670 273° West  Level FlightAware Approximate
01:35AM 35.8957 143.5131 272° West  Level FlightAware Approximate
01:36AM 35.9000 143.3591 270° West  Level FlightAware Approximate
01:37AM 35.9000 143.2051 270° West  Level FlightAware Approximate
01:37AM 35.8550 143.6840 270° West 399 459 34,200  Level FlightAware
01:38AM 35.9001 143.0510 270° West  Level FlightAware Approximate
01:38AM 35.8410 143.6170 256° West 399 459 34,200  Level FlightAware
01:38AM 35.8260 143.5500 255° West 399 459 34,200  Level FlightAware
01:39AM 35.8110 143.4820 255° West 399 459 34,200 -1,500 Level FlightAware
01:39AM 35.7940 143.3740 259° West 371 427 32,500 -1,860 Descending FlightAware
01:40AM 35.7800 143.3090 255° West 361 415 32,100 -720 Descending FlightAware
01:41AM 35.7670 143.2420 257° West 346 398 31,700 -960 Descending FlightAware
01:41AM 35.7530 143.1750 256° West 326 375 31,000 -780 Descending FlightAware
01:42AM 35.7410 143.1190 255° West 323 372 30,800 -180 Descending FlightAware
01:42AM 35.7290 143.0650 255° West 323 372 30,800 -1,440 Level FlightAware
01:45AM 35.7363 142.7518 272° West  Level Estimated
01:45AM 35.6730 142.7890 272° West 25,900  Level FlightAware
01:46AM 35.6610 142.7300 256° West 261 300 25,100 -1,320 Descending FlightAware
01:48AM 35.6746 142.4734 274° West  Level Estimated
01:49AM 35.6824 142.3210 274° West  Level Estimated
01:49AM 35.6160 142.4140 274° West 20,600  Level FlightAware
01:50AM 35.6130 142.3570 266° West 257 296 19,700 -1,320 Descending FlightAware
01:51AM 35.6100 142.2940 267° West 255 293 18,800 -960 Descending FlightAware
01:51AM 35.6080 142.2460 267° West 255 293 18,500 -1,200 Descending FlightAware
01:52AM 35.6050 142.1840 267° West 255 293 17,200 -1,020 Descending FlightAware
01:53AM 35.6030 142.1400 267° West 255 293 17,200  Level FlightAware
01:53AM 35.6010 142.0940 267° West 255 293 17,200  Level FlightAware
01:54AM 35.5990 142.0500 267° West 255 293 17,200  Level FlightAware
01:54AM 35.5970 142.0040 267° West 255 293 17,200 -960 Level FlightAware
01:55AM 35.5910 141.9000 266° West 271 312 16,000 -960 Descending FlightAware
01:56AM 35.5870 141.8370 266° West 275 316 16,000  Level FlightAware
01:56AM 35.5840 141.7790 266° West 274 315 16,000  Level FlightAware
01:57AM 35.5800 141.7190 265° West 273 314 16,000  Level FlightAware
01:58AM 35.5770 141.6640 266° West 271 312 16,000  Level FlightAware
01:58AM 35.5740 141.6020 267° West 274 315 16,000  Level FlightAware
01:59AM 35.5700 141.5340 266° West 271 312 16,000  Level FlightAware
01:59AM 35.5720 141.4900 273° West 279 321 16,000  Level FlightAware
02:00AM 35.5820 141.4600 292° West 280 322 16,000  Level FlightAware
02:00AM 35.6030 141.4140 299° West 269 310 16,000 -240 Level FlightAware
02:01AM 35.6200 141.3790 301° West 269 310 15,800 -780 Descending FlightAware
02:01AM 35.6300 141.3670 316° Northwest 280 322 15,500 -1,620 Descending FlightAware
02:01AM 35.6410 141.3600 333° Northwest 297 342 15,400 -900 Descending FlightAware
02:01AM 35.6550 141.3530 338° Northwest 294 338 15,200 -480 Descending FlightAware
02:02AM 35.7050 141.3320 341° North 295 339 15,000 -480 Descending FlightAware
02:02AM 35.7510 141.3130 341° North 304 350 14,700 -840 Descending FlightAware
02:03AM 35.7920 141.2960 341° North 301 346 14,100 -1,080 Descending FlightAware
02:04AM 35.8370 141.2760 340° North 292 336 13,500 -840 Descending FlightAware
02:04AM 35.8600 141.2630 335° Northwest 284 327 13,400 -300 Descending FlightAware
02:04AM 35.8640 141.2580 315° West 282 325 13,400  Level FlightAware
02:05AM 35.8710 141.2050 279° West 245 282 13,400  Level FlightAware
02:05AM 35.8530 141.1870 219° Southwest 245 282 13,400 -240 Level FlightAware
02:05AM 35.8460 141.1840 199° South 248 285 13,300 -1,200 Descending FlightAware
02:06AM 35.8100 141.1670 201° Southwest 240 276 12,600 -1,080 Descending FlightAware
02:06AM 35.8010 141.1470 241° Southwest 251 289 12,400 -1,080 Descending FlightAware
02:06AM 35.8000 141.1260 267° West 256 295 12,100 -1,080 Descending FlightAware
02:06AM 35.8010 141.0990 273° West 260 299 11,800 -960 Descending FlightAware
02:07AM 35.8080 141.0600 282° West 264 304 11,300 -960 Descending FlightAware
02:08AM 35.8210 140.9980 285° West 260 299 10,700 -900 Descending FlightAware
02:08AM 35.8320 140.9460 285° West 251 289 10,200 -780 Descending FlightAware
02:09AM 35.8400 140.9080 285° West 240 276 9,900 -780 Descending FlightAware
02:09AM 35.8400 140.8910 270° West 238 274 9,700 -1,200 Descending FlightAware
02:09AM 35.8370 140.8780 254° West 236 272 9,500 -1,320 Descending FlightAware
02:09AM 35.8320 140.8670 241° Southwest 238 274 9,300 -1,200 Descending FlightAware
02:09AM 35.8260 140.8580 231° Southwest 243 280 9,100 -1,200 Descending FlightAware
02:10AM 35.8110 140.8470 211° Southwest 244 281 8,800 -1,260 Descending FlightAware
02:10AM 35.7860 140.8370 198° South 253 291 8,400 -1,080 Descending FlightAware
02:10AM 35.7660 140.8280 200° South 253 291 8,100 -540 Descending FlightAware
02:11AM 35.7320 140.8140 198° South 253 291 7,900 -1,140 Descending FlightAware
02:11AM 35.6980 140.7990 200° South 242 278 7,000 -2,220 Descending FlightAware
02:11AM 35.6870 140.7940 200° South 253 291 6,700 -1,380 Descending FlightAware
02:12AM 35.6540 140.7800 199° South 259 298 6,100 -1,080 Descending FlightAware
02:12AM 35.6410 140.7740 201° Southwest 258 297 5,900 -1,080 Descending FlightAware
02:13AM 35.6030 140.7580 199° South 260 299 5,200 -1,020 Descending FlightAware
02:13AM 35.5780 140.7470 200° South 254 292 5,000 -660 Descending FlightAware
02:14AM 35.5490 140.7340 200° South 242 278 4,700 -540 Descending FlightAware
02:14AM 35.5300 140.7260 199° South 225 259 4,600 -540 Descending FlightAware
02:14AM 35.5110 140.7180 199° South 223 257 4,400 -300 Descending FlightAware
02:15AM 35.4900 140.7040 208° Southwest 191 220 4,400  Level FlightAware
02:15AM 35.4770 140.6860 228° Southwest 177 204 4,400  Level FlightAware
02:15AM 35.4670 140.6690 234° Southwest 170 196 4,400  Level FlightAware
02:16AM 35.4650 140.6570 258° West 167 192 4,400  Level FlightAware
02:16AM 35.4680 140.6310 278° West 156 180 4,400  Level FlightAware
02:16AM 35.4750 140.6170 302° West 149 171 4,400  Level FlightAware
02:16AM 35.4790 140.6080 299° West 150 173 4,400  Level FlightAware
02:17AM 35.4860 140.5910 297° West 149 171 4,400  Level FlightAware
02:17AM 35.4940 140.5760 303° West 146 168 4,400  Level FlightAware
02:17AM 35.4980 140.5710 314° West 145 167 4,400  Level FlightAware
02:18AM 35.5070 140.5610 318° Northwest 147 169 4,400  Level FlightAware
02:18AM 35.5200 140.5510 328° Northwest 148 170 4,400  Level FlightAware
02:18AM 35.5320 140.5430 332° Northwest 149 171 4,400  Level FlightAware
02:19AM 35.5410 140.5360 328° Northwest 148 170 4,400  Level FlightAware
02:19AM 35.5530 140.5280 332° Northwest 144 166 4,400  Level FlightAware
02:19AM 35.5650 140.5190 329° Northwest 143 165 4,400  Level FlightAware
02:20AM 35.5740 140.5130 332° Northwest 143 165 4,400 -540 Level FlightAware
02:20AM 35.5850 140.5050 329° Northwest 140 161 4,100 -960 Descending FlightAware
02:20AM 35.5920 140.5000 330° Northwest 141 162 3,900 -720 Descending FlightAware
02:20AM 35.6040 140.4910 329° Northwest 142 163 3,700 -720 Descending FlightAware
02:21AM 35.6120 140.4850 329° Northwest 143 165 3,500 -840 Descending FlightAware
02:21AM 35.6260 140.4750 330° Northwest 142 163 3,200 -840 Descending FlightAware
02:21AM 35.6370 140.4670 329° Northwest 138 159 2,900 -780 Descending FlightAware
02:22AM 35.6440 140.4620 330° Northwest 139 160 2,800 -780 Descending FlightAware
02:22AM 35.6550 140.4540 329° Northwest 142 163 2,500 -840 Descending FlightAware
02:22AM 35.6690 140.4450 332° Northwest 138 159 2,200 -780 Descending FlightAware
02:23AM 35.6770 140.4380 325° Northwest 133 153 2,000 -720 Descending FlightAware
02:23AM 35.6870 140.4320 334° Northwest 132 152 1,800 -720 Descending FlightAware
02:23AM 35.6960 140.4250 328° Northwest 132 152 1,600 -720 Descending FlightAware
02:24AM 35.7100 140.4150 330° Northwest 133 153 1,300 -660 Descending FlightAware
02:24AM 35.7160 140.4100 326° Northwest 133 153 1,200 -660 Descending FlightAware
02:24AM 35.7310 140.4000 332° Northwest 133 153 900 -780 Descending FlightAware
02:25AM 35.7420 140.3920 329° Northwest 134 154 600 -420 Descending FlightAware
02:25AM 35.7530 140.3840 329° Northwest 134 154 600  Level FlightAware